Time;durP1;ratioP1;P1;durP2;ratioP2;P2;SDS_P1;SDS_P2;PMS_P1;PMS_P2;Temp;Humidity;BMP_temperature;BMP_pressure;BME280_temperature;BME280_humidity;BME280_pressure;Samples;Min_cycle;Max_cycle;Signal;HPM_P1;HPM_P2
2021/10/24 00:01:49;;;;;;;5.68;3.38;;;;;;;3.24;100.00;102297.53;4923479;29;20459;-86
2021/10/24 00:04:18;;;;;;;6.18;3.47;;;;;;;3.23;100.00;102306.09;4921814;29;20050;-86
2021/10/24 00:06:44;;;;;;;10.52;4.35;;;;;;;3.23;100.00;102303.50;4921132;29;20635;-86
2021/10/24 00:09:11;;;;;;;13.02;4.88;;;;;;;3.21;100.00;102302.56;4920446;29;20072;-86
2021/10/24 00:11:38;;;;;;;7.25;3.58;;;;;;;3.19;100.00;102304.19;4906358;29;20119;-86
2021/10/24 00:14:07;;;;;;;19.70;4.75;;;;;;;3.16;100.00;102299.75;4920648;29;20479;-86
2021/10/24 00:16:34;;;;;;;9.30;3.80;;;;;;;3.14;100.00;102296.19;4909681;29;20147;-87
2021/10/24 00:19:01;;;;;;;26.05;5.03;;;;;;;3.11;100.00;102290.88;4925686;29;20052;-86
2021/10/24 00:21:27;;;;;;;10.25;4.97;;;;;;;3.11;100.00;102289.16;4945688;29;20043;-86
2021/10/24 00:23:55;;;;;;;5.93;3.42;;;;;;;3.10;100.00;102295.19;4922250;29;20058;-86
2021/10/24 00:26:21;;;;;;;10.02;4.10;;;;;;;3.08;100.00;102285.56;4926966;29;20063;-84
2021/10/24 00:28:51;;;;;;;6.68;4.05;;;;;;;3.06;100.00;102292.34;4927109;29;20413;-86
2021/10/24 00:31:18;;;;;;;9.15;4.05;;;;;;;3.04;100.00;102292.28;4922720;29;20067;-86
2021/10/24 00:33:44;;;;;;;10.38;4.05;;;;;;;3.02;100.00;102287.84;4924230;29;20153;-86
2021/10/24 00:36:11;;;;;;;11.30;4.78;;;;;;;2.99;100.00;102283.41;4918624;29;20040;-86
2021/10/24 00:38:38;;;;;;;10.40;3.67;;;;;;;2.97;100.00;102283.34;4923436;29;20537;-86
2021/10/24 00:41:06;;;;;;;8.25;3.70;;;;;;;2.94;100.00;102287.47;4910068;29;20146;-86
2021/10/24 00:43:32;;;;;;;9.02;5.20;;;;;;;2.91;100.00;102285.63;4933477;29;20079;-86
2021/10/24 00:45:59;;;;;;;5.65;4.13;;;;;;;2.88;100.00;102282.00;4920393;29;20050;-86
2021/10/24 00:48:26;;;;;;;6.30;3.35;;;;;;;2.88;100.00;102284.56;4905687;29;21850;-86
2021/10/24 00:50:53;;;;;;;7.40;3.38;;;;;;;2.86;100.00;102284.50;4909196;29;20066;-86
2021/10/24 00:53:20;;;;;;;10.52;4.00;;;;;;;2.85;100.00;102285.31;4910103;29;20048;-86
2021/10/24 00:55:47;;;;;;;9.05;4.10;;;;;;;2.85;100.00;102279.25;4905332;29;20067;-86
2021/10/24 00:58:16;;;;;;;8.77;3.28;;;;;;;2.84;100.00;102280.94;4908656;29;20058;-86
2021/10/24 01:00:44;;;;;;;14.15;4.68;;;;;;;2.81;100.00;102276.50;4940075;28;20055;-85
2021/10/24 01:03:12;;;;;;;12.93;3.75;;;;;;;2.80;100.00;102276.44;4889974;29;20055;-86
2021/10/24 01:05:39;;;;;;;7.22;4.30;;;;;;;2.80;100.00;102276.44;4925089;29;20051;-86
2021/10/24 01:08:05;;;;;;;9.77;4.13;;;;;;;2.78;100.00;102268.59;4908651;29;20055;-86
2021/10/24 01:10:33;;;;;;;5.53;3.47;;;;;;;2.77;100.00;102271.13;4914879;29;20566;-86
2021/10/24 01:13:04;;;;;;;7.13;3.88;;;;;;;2.77;100.00;102272.00;4939453;29;20087;-86
2021/10/24 01:15:31;;;;;;;12.18;4.35;;;;;;;2.77;100.00;102277.19;4925623;28;20422;-86
2021/10/24 01:17:59;;;;;;;12.48;4.82;;;;;;;2.77;100.00;102279.75;4931830;29;20086;-86
2021/10/24 01:20:32;;;;;;;10.32;4.70;;;;;;;2.74;100.00;102268.41;4932758;29;20051;-86
2021/10/24 01:23:02;;;;;;;10.15;4.20;;;;;;;2.73;100.00;102261.44;4911933;29;20447;-86
2021/10/24 01:25:28;;;;;;;12.20;4.85;;;;;;;2.70;100.00;102267.34;4939844;28;20044;-87
2021/10/24 01:28:16;;;;;;;8.65;4.45;;;;;;;2.70;100.00;102267.34;4945621;28;20051;-86
2021/10/24 01:30:43;;;;;;;16.33;4.85;;;;;;;2.69;100.00;102262.13;4913671;29;20115;-86
2021/10/24 01:33:12;;;;;;;7.60;3.85;;;;;;;2.65;100.00;102256.78;4927431;29;20082;-87
2021/10/24 01:35:52;;;;;;;14.23;6.53;;;;;;;2.65;100.00;102254.19;4927505;29;21956;-87
2021/10/24 01:38:50;;;;;;;8.40;5.68;;;;;;;2.68;100.00;102257.75;4909649;29;20058;-86
2021/10/24 01:41:24;;;;;;;10.25;4.40;;;;;;;2.69;100.00;102257.81;4908832;29;20044;-86
2021/10/24 01:43:52;;;;;;;10.68;5.05;;;;;;;2.65;100.00;102246.44;4924792;29;20077;-87
2021/10/24 01:46:19;;;;;;;17.30;6.15;;;;;;;2.64;100.00;102247.22;4916509;29;20043;-86
2021/10/24 01:48:48;;;;;;;8.73;5.35;;;;;;;2.61;100.00;102246.22;4922449;29;20061;-86
2021/10/24 01:51:15;;;;;;;8.82;4.90;;;;;;;2.59;100.00;102246.13;4906071;29;20510;-87
2021/10/24 01:53:45;;;;;;;11.07;4.20;;;;;;;2.60;100.00;102247.03;4926655;29;20044;-86
2021/10/24 01:56:13;;;;;;;8.73;4.68;;;;;;;2.58;100.00;102248.63;4907287;29;20055;-87
2021/10/24 01:58:40;;;;;;;11.52;5.43;;;;;;;2.54;100.00;102242.41;4924895;29;20052;-87
2021/10/24 02:01:08;;;;;;;7.55;4.45;;;;;;;2.53;100.00;102237.19;4911529;29;20051;-86
2021/10/24 02:03:35;;;;;;;10.82;5.50;;;;;;;2.52;100.00;102236.31;4941231;28;20079;-86
2021/10/24 02:06:03;;;;;;;8.10;4.22;;;;;;;2.48;100.00;102230.09;4925983;29;20043;-86
2021/10/24 02:08:30;;;;;;;7.38;4.75;;;;;;;2.47;100.00;102233.47;4938549;29;20043;-86
2021/10/24 02:10:57;;;;;;;9.48;4.40;;;;;;;2.47;100.00;102235.19;4943029;28;20055;-86
2021/10/24 02:13:24;;;;;;;9.18;4.55;;;;;;;2.46;100.00;102234.31;4940713;28;20428;-87
2021/10/24 02:15:50;;;;;;;8.95;4.93;;;;;;;2.44;100.00;102235.91;4925028;29;20051;-86
2021/10/24 02:18:16;;;;;;;6.88;4.40;;;;;;;2.43;100.00;102230.69;4939983;28;20058;-86
2021/10/24 02:20:43;;;;;;;12.45;5.18;;;;;;;2.42;100.00;102234.94;4941571;29;20071;-86
2021/10/24 02:23:10;;;;;;;9.38;4.03;;;;;;;2.44;100.00;102229.88;4923208;29;20043;-86
2021/10/24 02:25:38;;;;;;;6.53;4.13;;;;;;;2.43;100.00;102235.84;4939695;29;20528;-87
2021/10/24 02:28:06;;;;;;;13.52;4.47;;;;;;;2.43;100.00;102238.44;4942675;29;20130;-86
2021/10/24 02:30:32;;;;;;;8.38;4.53;;;;;;;2.39;100.00;102232.22;4924598;29;20662;-86
2021/10/24 02:32:59;;;;;;;15.88;6.22;;;;;;;2.39;100.00;102232.22;4926093;29;20043;-86
2021/10/24 02:35:26;;;;;;;8.73;4.97;;;;;;;2.38;100.00;102222.69;4923758;29;20055;-86
2021/10/24 02:37:54;;;;;;;7.82;5.43;;;;;;;2.39;100.00;102226.19;4926149;29;20047;-86
2021/10/24 02:40:22;;;;;;;10.80;4.60;;;;;;;2.39;100.00;102232.22;4925320;29;20055;-86
2021/10/24 02:42:50;;;;;;;9.95;4.38;;;;;;;2.39;100.00;102223.59;4942677;28;20043;-87
2021/10/24 02:45:20;;;;;;;11.52;4.57;;;;;;;2.38;100.00;102225.28;4920438;28;20050;-86
2021/10/24 02:47:47;;;;;;;12.05;4.63;;;;;;;2.39;100.00;102221.00;4926572;28;20597;-86
2021/10/24 02:50:13;;;;;;;12.73;4.88;;;;;;;2.38;100.00;102222.69;4942036;28;20527;-86
2021/10/24 02:52:40;;;;;;;11.38;4.97;;;;;;;2.36;100.00;102220.84;4924237;29;20075;-86
2021/10/24 02:55:09;;;;;;;13.90;4.63;;;;;;;2.35;100.00;102226.81;4923395;29;20054;-87
2021/10/24 02:57:36;;;;;;;17.70;5.68;;;;;;;2.34;100.00;102215.59;4924668;29;21492;-86
2021/10/24 03:00:06;;;;;;;6.47;4.45;;;;;;;2.31;100.00;102220.63;4942204;28;20459;-87
2021/10/24 03:02:32;;;;;;;4.45;3.60;;;;;;;2.29;100.00;102224.81;4924657;29;20050;-87
2021/10/24 03:04:59;;;;;;;7.57;4.53;;;;;;;2.24;100.00;102218.53;4925112;29;20051;-85
2021/10/24 03:07:26;;;;;;;10.48;4.82;;;;;;;2.22;100.00;102222.75;4938919;29;21433;-86
2021/10/24 03:09:52;;;;;;;11.27;5.40;;;;;;;2.19;100.00;102213.16;4938414;28;20051;-86
2021/10/24 03:12:19;;;;;;;9.30;5.20;;;;;;;2.21;100.00;102218.38;4924208;29;20659;-86
2021/10/24 03:14:45;;;;;;;12.07;4.57;;;;;;;2.21;100.00;102214.09;4921718;29;20043;-86
2021/10/24 03:17:12;;;;;;;7.57;4.13;;;;;;;2.22;100.00;102215.00;4924985;29;20054;-86
2021/10/24 03:19:39;;;;;;;12.68;4.10;;;;;;;2.23;100.00;102221.91;4925102;29;20094;-86
2021/10/24 03:22:05;;;;;;;12.95;5.80;;;;;;;2.22;100.00;102209.81;4928638;29;20054;-87
2021/10/24 03:24:32;;;;;;;9.25;5.70;;;;;;;2.22;100.00;102215.00;4939414;28;20110;-86
2021/10/24 03:26:59;;;;;;;7.53;4.47;;;;;;;2.20;100.00;102216.59;4926739;29;20780;-86
2021/10/24 03:29:25;;;;;;;7.00;3.92;;;;;;;2.19;100.00;102209.66;4921929;29;20057;-86
2021/10/24 03:31:52;;;;;;;12.93;5.88;;;;;;;2.18;100.00;102207.88;4937845;29;21559;-86
2021/10/24 03:34:19;;;;;;;7.05;4.55;;;;;;;2.20;100.00;102208.84;4938475;28;20055;-86
2021/10/24 03:36:47;;;;;;;19.90;5.22;;;;;;;2.20;100.00;102206.28;4937927;29;20055;-86
2021/10/24 03:39:15;;;;;;;8.63;4.50;;;;;;;2.19;100.00;102199.31;4925939;29;20077;-86
2021/10/24 03:41:41;;;;;;;8.23;4.80;;;;;;;2.20;100.00;102208.84;4941358;28;20054;-86
2021/10/24 03:44:08;;;;;;;8.88;5.47;;;;;;;2.19;100.00;102200.22;4926375;29;20455;-86
2021/10/24 03:46:37;;;;;;;7.55;4.55;;;;;;;2.21;100.00;102205.47;4936460;29;20106;-86
2021/10/24 03:49:04;;;;;;;7.22;5.18;;;;;;;2.22;100.00;102202.06;4926270;29;20118;-86
2021/10/24 03:51:31;;;;;;;8.70;5.07;;;;;;;2.21;100.00;102210.63;4939035;28;20113;-86
2021/10/24 03:54:01;;;;;;;6.90;4.50;;;;;;;2.19;100.00;102209.66;4922028;28;20047;-86
2021/10/24 03:56:27;;;;;;;7.28;4.75;;;;;;;2.18;100.00;102203.59;4943087;28;20126;-86
2021/10/24 03:58:54;;;;;;;8.85;4.93;;;;;;;2.18;100.00;102201.03;4924152;29;20055;-86
2021/10/24 04:01:20;;;;;;;8.07;5.32;;;;;;;2.18;100.00;102201.03;4915289;29;20120;-87
2021/10/24 04:03:47;;;;;;;11.35;5.35;;;;;;;2.16;100.00;102205.22;4905386;29;20083;-87
2021/10/24 04:06:14;;;;;;;11.93;5.03;;;;;;;2.15;100.00;102201.75;4907076;29;20051;-87
2021/10/24 04:08:41;;;;;;;20.85;5.30;;;;;;;2.15;100.00;102201.75;4919927;29;20046;-86
2021/10/24 04:11:08;;;;;;;14.07;5.20;;;;;;;2.14;100.00;102202.56;4922719;29;20044;-86
2021/10/24 04:13:34;;;;;;;11.93;5.85;;;;;;;2.15;100.00;102193.09;4903588;29;20059;-86
2021/10/24 04:16:01;;;;;;;15.10;5.80;;;;;;;2.19;100.00;102201.91;4907276;29;20047;-86
2021/10/24 04:18:28;;;;;;;11.27;5.13;;;;;;;2.21;100.00;102208.91;4901499;29;20913;-86
2021/10/24 04:20:55;;;;;;;17.73;5.30;;;;;;;2.22;100.00;102199.50;4934518;29;20146;-87
2021/10/24 04:23:22;;;;;;;11.40;4.95;;;;;;;2.22;100.00;102197.78;4906318;29;20134;-86
2021/10/24 04:25:48;;;;;;;7.80;4.88;;;;;;;2.23;100.00;102206.41;4907357;29;20107;-86
2021/10/24 04:28:16;;;;;;;11.82;5.28;;;;;;;2.23;100.00;102189.22;4903634;29;20083;-86
2021/10/24 04:30:44;;;;;;;7.70;5.07;;;;;;;2.24;100.00;102195.28;4920584;29;20058;-86
2021/10/24 04:33:10;;;;;;;8.32;5.28;;;;;;;2.24;100.00;102191.00;4916571;29;20762;-85
2021/10/24 04:35:37;;;;;;;9.52;5.30;;;;;;;2.26;100.00;102194.53;4902839;29;20044;-87
2021/10/24 04:38:03;;;;;;;10.30;5.15;;;;;;;2.26;100.00;102196.25;4902450;29;20603;-86
2021/10/24 04:40:30;;;;;;;8.95;4.93;;;;;;;2.25;100.00;102187.59;4923947;29;20048;-86
2021/10/24 04:42:57;;;;;;;18.02;5.70;;;;;;;2.25;100.00;102192.75;4922720;29;20099;-87
2021/10/24 04:45:23;;;;;;;8.35;4.63;;;;;;;2.25;100.00;102191.88;4918564;29;20051;-88
2021/10/24 04:47:50;;;;;;;14.98;5.55;;;;;;;2.27;100.00;102190.28;4907297;29;20458;-86
2021/10/24 04:50:16;;;;;;;7.65;4.97;;;;;;;2.26;100.00;102194.53;4904780;29;20060;-86
2021/10/24 04:52:43;;;;;;;11.50;5.25;;;;;;;2.27;100.00;102195.44;4907601;29;20071;-86
2021/10/24 04:55:11;;;;;;;9.60;4.93;;;;;;;2.27;100.00;102198.91;4903083;29;20115;-86
2021/10/24 04:57:37;;;;;;;12.18;4.82;;;;;;;2.26;100.00;102189.38;4908276;29;20059;-86
2021/10/24 05:00:08;;;;;;;14.10;5.75;;;;;;;2.26;100.00;102185.91;4905351;29;20495;-85
2021/10/24 05:02:35;;;;;;;9.23;5.00;;;;;;;2.26;100.00;102189.38;4922543;29;20059;-86
2021/10/24 05:05:04;;;;;;;7.00;5.05;;;;;;;2.27;100.00;102182.53;4923393;29;20499;-86
2021/10/24 05:07:31;;;;;;;16.10;6.28;;;;;;;2.28;100.00;102190.34;4923158;29;20131;-86
2021/10/24 05:09:58;;;;;;;11.02;5.10;;;;;;;2.29;100.00;102188.63;4909364;29;20137;-86
2021/10/24 05:12:24;;;;;;;6.32;4.47;;;;;;;2.28;100.00;102185.19;4905903;29;20059;-86
2021/10/24 05:14:51;;;;;;;9.07;4.80;;;;;;;2.28;100.00;102184.28;4922179;29;20047;-86
2021/10/24 05:17:17;;;;;;;11.55;5.13;;;;;;;2.28;100.00;102182.59;4936405;28;20138;-87
2021/10/24 05:19:44;;;;;;;8.45;5.18;;;;;;;2.29;100.00;102181.78;4926503;29;20059;-86
2021/10/24 05:22:11;;;;;;;11.88;5.90;;;;;;;2.27;100.00;102174.78;4927799;29;20086;-87
2021/10/24 05:24:38;;;;;;;8.60;4.93;;;;;;;2.23;100.00;102175.41;4924677;29;20054;-87
2021/10/24 05:27:05;;;;;;;8.80;5.93;;;;;;;2.22;100.00;102176.25;4945714;29;20114;-86
2021/10/24 05:29:32;;;;;;;6.10;4.22;;;;;;;2.21;100.00;102177.03;4928146;29;20086;-86
2021/10/24 05:31:58;;;;;;;10.60;5.70;;;;;;;2.17;100.00;102172.53;4903320;29;20506;-86
2021/10/24 05:34:25;;;;;;;5.13;4.65;;;;;;;2.15;100.00;102180.19;4906654;29;20146;-86
2021/10/24 05:36:52;;;;;;;12.18;5.32;;;;;;;2.12;100.00;102180.91;4907184;29;21393;-86
2021/10/24 05:39:18;;;;;;;10.35;4.95;;;;;;;2.09;100.00;102175.59;4908878;29;20052;-86
2021/10/24 05:41:45;;;;;;;9.35;5.10;;;;;;;2.07;100.00;102174.63;4909427;29;20075;-86
2021/10/24 05:44:12;;;;;;;10.60;6.10;;;;;;;2.05;100.00;102176.28;4906923;29;20047;-86
2021/10/24 05:46:40;;;;;;;11.35;5.00;;;;;;;2.04;100.00;102174.50;4913852;29;20051;-87
2021/10/24 05:49:07;;;;;;;6.50;4.72;;;;;;;2.04;100.00;102163.28;4925104;29;20058;-86
2021/10/24 05:51:34;;;;;;;9.95;5.18;;;;;;;2.03;100.00;102164.97;4906903;29;20062;-86
2021/10/24 05:54:01;;;;;;;7.60;4.95;;;;;;;2.04;100.00;102171.03;4924333;29;20084;-87
2021/10/24 05:56:28;;;;;;;14.77;6.47;;;;;;;2.05;100.00;102168.53;4923616;29;20158;-86
2021/10/24 05:58:54;;;;;;;7.00;4.72;;;;;;;2.03;100.00;102171.84;4909340;29;20052;-87
2021/10/24 06:01:21;;;;;;;8.70;5.32;;;;;;;2.01;100.00;102165.69;4916367;29;20059;-86
2021/10/24 06:03:48;;;;;;;7.97;5.55;;;;;;;2.00;100.00;102166.53;4925291;29;20070;-86
2021/10/24 06:06:14;;;;;;;10.68;5.70;;;;;;;2.00;100.00;102166.53;4926210;29;20039;-86
2021/10/24 06:08:42;;;;;;;13.63;5.65;;;;;;;1.99;100.00;102168.19;4909763;29;20142;-86
2021/10/24 06:11:25;;;;;;;11.88;5.25;;;;;;;1.96;100.00;102165.47;4909365;29;20051;-87
2021/10/24 06:13:53;;;;;;;7.03;5.22;;;;;;;1.97;100.00;102173.28;4911417;29;20114;-87
2021/10/24 06:16:20;;;;;;;14.73;5.20;;;;;;;1.97;100.00;102173.28;4932095;28;20061;-87
2021/10/24 06:18:46;;;;;;;9.27;6.07;;;;;;;1.96;100.00;102165.47;4928150;28;20059;-85
2021/10/24 06:21:13;;;;;;;8.85;4.45;;;;;;;1.97;100.00;102173.28;4926232;29;20051;-86
2021/10/24 06:23:40;;;;;;;9.77;4.63;;;;;;;1.99;100.00;102170.78;4930635;29;20146;-87
2021/10/24 06:26:06;;;;;;;12.80;4.95;;;;;;;2.00;100.00;102174.28;4926879;29;20051;-87
2021/10/24 06:28:33;;;;;;;10.73;5.22;;;;;;;2.02;100.00;102176.13;4927039;29;20506;-87
2021/10/24 06:31:00;;;;;;;11.25;5.82;;;;;;;2.03;100.00;102180.47;4912634;29;20099;-87
2021/10/24 06:33:27;;;;;;;13.05;6.95;;;;;;;2.06;100.00;102170.31;4912025;29;20048;-87
2021/10/24 06:35:54;;;;;;;8.00;4.88;;;;;;;2.12;100.00;102177.47;4923406;29;20044;-87
2021/10/24 06:38:20;;;;;;;11.27;5.32;;;;;;;2.12;100.00;102168.00;4910610;29;20060;-87
2021/10/24 06:40:48;;;;;;;9.10;4.90;;;;;;;2.15;100.00;102173.34;4911161;29;20118;-86
2021/10/24 06:43:15;;;;;;;6.75;4.63;;;;;;;2.18;100.00;102170.03;4906966;29;20111;-87
2021/10/24 06:45:44;;;;;;;7.15;5.15;;;;;;;2.22;100.00;102171.94;4922415;29;20051;-86
2021/10/24 06:48:10;;;;;;;6.10;4.28;;;;;;;2.25;100.00;102172.09;4923209;29;20103;-86
2021/10/24 06:50:37;;;;;;;11.18;5.95;;;;;;;2.28;100.00;102168.75;4924618;29;20162;-87
2021/10/24 06:53:04;;;;;;;13.73;6.18;;;;;;;2.31;100.00;102167.22;4904800;29;20063;-86
2021/10/24 06:55:31;;;;;;;7.93;4.88;;;;;;;2.35;100.00;102163.09;4921870;29;20044;-86
2021/10/24 06:57:57;;;;;;;10.63;5.75;;;;;;;2.39;100.00;102161.56;4938590;29;20150;-87
2021/10/24 07:00:28;;;;;;;11.30;5.93;;;;;;;2.45;100.00;102170.50;4922680;28;20060;-86
2021/10/24 07:02:56;;;;;;;7.60;5.35;;;;;;;2.53;100.00;102164.78;4942969;28;20049;-86
2021/10/24 07:05:24;;;;;;;9.57;5.80;;;;;;;2.76;100.00;102173.66;4929267;28;20128;-86
2021/10/24 07:07:50;;;;;;;10.07;5.07;;;;;;;3.05;100.00;102162.09;4929365;28;20097;-87
2021/10/24 07:10:18;;;;;;;8.60;4.32;;;;;;;3.18;100.00;102167.84;4927779;28;20062;-86
2021/10/24 07:12:50;;;;;;;6.60;4.57;;;;;;;3.23;100.00;102171.53;4943448;28;21136;-86
2021/10/24 07:15:20;;;;;;;9.48;4.75;;;;;;;3.23;100.00;102167.22;4927106;28;20051;-86
2021/10/24 07:17:46;;;;;;;6.40;5.25;;;;;;;3.21;100.00;102162.81;4944413;28;20054;-86
2021/10/24 07:20:14;;;;;;;6.75;3.70;;;;;;;3.20;100.00;102159.31;4942736;28;20864;-87
2021/10/24 07:22:40;;;;;;;5.00;4.53;;;;;;;3.21;100.00;102157.66;4943523;28;20055;-86
2021/10/24 07:25:08;;;;;;;8.23;4.15;;;;;;;3.24;100.00;102163.81;4926769;28;20043;-86
2021/10/24 07:27:35;;;;;;;8.57;4.43;;;;;;;3.25;100.00;102165.59;4925166;28;20047;-86
2021/10/24 07:30:01;;;;;;;8.60;4.72;;;;;;;3.30;100.00;102161.53;4927722;28;20093;-86
2021/10/24 07:32:28;;;;;;;9.20;6.07;;;;;;;3.33;100.00;102159.91;4920544;28;20048;-86
2021/10/24 07:34:56;;;;;;;8.25;4.38;;;;;;;3.36;100.00;102165.19;4904626;29;20107;-86
2021/10/24 07:37:23;;;;;;;10.93;4.90;;;;;;;3.42;100.00;102160.31;4909822;29;20499;-86
2021/10/24 07:39:49;;;;;;;9.90;4.35;;;;;;;3.48;100.00;102158.88;4903913;29;20048;-87
2021/10/24 07:42:16;;;;;;;11.48;4.60;;;;;;;3.53;100.00;102156.47;4908430;29;22791;-87
2021/10/24 07:44:43;;;;;;;9.35;5.07;;;;;;;3.57;100.00;102147.13;4922237;29;20704;-87
2021/10/24 07:47:09;;;;;;;11.15;3.95;;;;;;;3.64;100.00;102155.25;4923382;29;20172;-87
2021/10/24 07:49:36;;;;;;;7.78;4.38;;;;;;;3.70;100.00;102157.19;4907334;29;20051;-86
2021/10/24 07:52:03;;;;;;;7.45;4.13;;;;;;;3.78;100.00;102166.22;4907544;29;20048;-86
2021/10/24 07:54:30;;;;;;;9.80;4.13;;;;;;;3.84;100.00;102167.31;4909106;29;20106;-86
2021/10/24 07:56:57;;;;;;;5.03;3.65;;;;;;;3.89;100.00;102158.03;4906577;29;20047;-86
2021/10/24 07:59:23;;;;;;;11.77;3.67;;;;;;;3.95;100.00;102153.97;4906479;29;20040;-86
2021/10/24 08:01:50;;;;;;;9.25;3.60;;;;;;;4.00;99.78;102164.53;4936359;28;20540;-87
2021/10/24 08:04:17;;;;;;;5.22;3.10;;;;;;;4.06;99.90;102158.75;4929290;28;20047;-86
2021/10/24 08:06:43;;;;;;;8.10;4.05;;;;;;;4.12;99.49;102161.59;4942971;28;20227;-86
2021/10/24 08:09:12;;;;;;;8.73;3.70;;;;;;;4.19;98.46;102161.00;4928358;28;20047;-86
2021/10/24 08:11:40;;;;;;;10.07;4.22;;;;;;;4.26;98.59;102155.28;4942069;28;20793;-87
2021/10/24 08:14:08;;;;;;;6.40;3.80;;;;;;;4.33;98.43;102152.91;4926835;28;20057;-86
2021/10/24 08:16:37;;;;;;;9.52;3.63;;;;;;;4.41;97.41;102159.31;4941083;28;20050;-86
2021/10/24 08:19:05;;;;;;;5.03;3.30;;;;;;;4.49;96.34;102149.25;4926262;29;20133;-86
2021/10/24 08:21:33;;;;;;;6.32;3.22;;;;;;;4.54;96.10;102150.31;4925640;29;20055;-86
2021/10/24 08:24:00;;;;;;;4.70;3.72;;;;;;;4.57;96.04;102143.53;4941076;28;20083;-86
2021/10/24 08:26:27;;;;;;;6.63;3.75;;;;;;;4.62;96.12;102143.72;4927029;29;20047;-87
2021/10/24 08:28:54;;;;;;;4.85;3.45;;;;;;;4.66;95.97;102140.41;4925142;29;20047;-87
2021/10/24 08:31:25;;;;;;;5.82;3.88;;;;;;;4.70;96.44;102131.94;4920770;29;20055;-87
2021/10/24 08:33:54;;;;;;;13.15;4.75;;;;;;;4.75;96.55;102132.13;4908736;29;20044;-85
2021/10/24 08:36:22;;;;;;;10.20;3.65;;;;;;;4.82;96.21;102134.09;4920263;29;20567;-87
2021/10/24 08:38:49;;;;;;;9.18;4.28;;;;;;;4.93;95.07;102137.13;4922087;29;20056;-87
2021/10/24 08:41:22;;;;;;;10.27;4.65;;;;;;;5.02;95.39;102132.28;4919710;29;20110;-87
2021/10/24 08:43:52;;;;;;;8.27;3.67;;;;;;;5.13;94.64;102130.09;4906036;29;20063;-87
2021/10/24 08:46:21;;;;;;;11.00;4.28;;;;;;;5.24;94.75;102130.47;4919528;29;20050;-87
2021/10/24 08:48:49;;;;;;;7.75;3.72;;;;;;;5.32;94.34;102121.28;4907737;29;20054;-86
2021/10/24 08:51:16;;;;;;;8.98;3.55;;;;;;;5.48;93.50;102117.50;4905113;29;20103;-87
2021/10/24 08:53:45;;;;;;;12.32;4.25;;;;;;;5.59;93.29;102120.47;4908171;29;20104;-87
2021/10/24 08:56:26;;;;;;;7.57;3.55;;;;;;;5.70;93.40;102119.16;4922854;29;20062;-86
2021/10/24 08:58:53;;;;;;;5.00;2.95;;;;;;;5.78;91.97;102102.09;4917940;29;20154;-86
2021/10/24 09:01:20;;;;;;;7.05;3.38;;;;;;;5.91;91.23;102107.72;4921687;29;20080;-86
2021/10/24 09:04:14;;;;;;;7.07;3.13;;;;;;;6.02;90.11;102105.50;4920827;29;20079;-87
2021/10/24 09:06:55;;;;;;;5.05;2.83;;;;;;;6.15;88.81;102096.41;4939467;29;20048;-87
2021/10/24 09:09:29;;;;;;;5.15;3.38;;;;;;;6.22;89.41;102098.34;4905995;29;20055;-86
2021/10/24 09:12:06;;;;;;;14.93;6.40;;;;;;;6.28;88.96;102089.06;4922952;29;20064;-87
2021/10/24 09:14:48;;;;;;;5.95;3.50;;;;;;;6.37;88.29;102088.44;4906773;29;20047;-87
2021/10/24 09:17:20;;;;;;;9.15;3.17;;;;;;;6.45;88.77;102089.59;4923744;29;20107;-86
2021/10/24 09:19:57;;;;;;;8.82;3.83;;;;;;;6.49;88.76;102079.25;4922965;29;20056;-86
2021/10/24 09:22:35;;;;;;;5.65;3.65;;;;;;;6.55;87.85;102080.31;4923387;29;20048;-86
2021/10/24 09:25:02;;;;;;;12.65;6.03;;;;;;;6.62;87.16;102076.19;4938086;28;20048;-87
2021/10/24 09:27:31;;;;;;;7.07;4.22;;;;;;;6.66;87.13;102077.16;4941920;29;20071;-86
2021/10/24 09:30:11;;;;;;;9.38;4.10;;;;;;;6.73;87.29;102079.13;4927384;29;20047;-87
2021/10/24 09:33:02;;;;;;;8.35;3.67;;;;;;;6.79;86.86;102074.09;4926975;29;20162;-86
2021/10/24 09:35:34;;;;;;;9.52;4.85;;;;;;;6.83;87.04;102069.88;4929546;29;20059;-86
2021/10/24 09:38:04;;;;;;;7.60;4.10;;;;;;;6.86;86.90;102070.84;4944506;28;20048;-86
2021/10/24 09:40:36;;;;;;;6.93;3.90;;;;;;;6.91;86.01;102069.25;4928412;29;21113;-86
2021/10/24 09:43:22;;;;;;;6.60;3.33;;;;;;;6.99;85.35;102072.09;4929568;29;20462;-86
2021/10/24 09:46:10;;;;;;;4.63;2.85;;;;;;;7.04;84.54;102062.69;4944391;29;20055;-86
2021/10/24 09:48:41;;;;;;;4.20;2.42;;;;;;;7.12;83.48;102068.97;4943151;28;20047;-87
2021/10/24 09:51:11;;;;;;;4.07;2.78;;;;;;;7.19;83.69;102064.81;4916927;29;20039;-87
2021/10/24 09:53:51;;;;;;;5.40;3.47;;;;;;;7.25;82.82;102059.78;4915589;29;20054;-87
2021/10/24 09:56:21;;;;;;;4.95;2.97;;;;;;;7.39;80.34;102060.16;4931320;29;20098;-86
2021/10/24 09:58:51;;;;;;;7.13;2.90;;;;;;;7.47;78.38;102057.78;4928274;29;20383;-86
2021/10/24 10:01:21;;;;;;;10.13;4.57;;;;;;;7.57;78.12;102054.56;4926113;29;20047;-86
2021/10/24 10:03:51;;;;;;;2.70;1.77;;;;;;;7.64;78.55;102055.59;4910880;29;20523;-87
2021/10/24 10:06:23;;;;;;;3.95;2.78;;;;;;;7.69;77.70;102061.81;4925295;29;20066;-87
2021/10/24 10:08:51;;;;;;;7.70;4.03;;;;;;;7.76;77.52;102052.44;4942688;29;20078;-87
2021/10/24 10:11:25;;;;;;;5.15;2.70;;;;;;;7.81;76.88;102037.78;4910407;29;20314;-87
2021/10/24 10:14:12;;;;;;;9.00;2.70;;;;;;;7.88;75.93;102041.41;4928025;29;20499;-87
2021/10/24 10:16:42;;;;;;;5.95;2.30;;;;;;;7.97;75.36;102036.41;4927760;29;20871;-86
2021/10/24 10:19:11;;;;;;;5.07;2.42;;;;;;;8.05;74.26;102034.00;4926850;29;20047;-87
2021/10/24 10:21:48;;;;;;;7.22;2.30;;;;;;;8.15;72.47;102029.88;4925536;29;20059;-87
2021/10/24 10:24:36;;;;;;;5.35;2.08;;;;;;;8.25;70.09;102040.56;4910103;29;20043;-86
2021/10/24 10:27:30;;;;;;;4.20;1.77;;;;;;;8.33;67.63;102032.91;4940825;29;20063;-87
2021/10/24 10:30:07;;;;;;;5.85;2.42;;;;;;;8.38;68.50;102033.00;4926364;29;20516;-86
2021/10/24 10:32:47;;;;;;;4.13;1.30;;;;;;;8.38;67.90;102023.47;4908073;29;20138;-87
2021/10/24 10:35:18;;;;;;;7.50;1.60;;;;;;;8.38;69.01;102026.06;4909363;29;20507;-86
2021/10/24 10:37:55;;;;;;;4.65;1.27;;;;;;;8.42;68.31;102024.38;4907129;29;20047;-87
2021/10/24 10:40:34;;;;;;;5.55;1.20;;;;;;;8.49;67.13;102015.91;4928122;29;20055;-87
2021/10/24 10:43:13;;;;;;;5.72;1.27;;;;;;;8.53;66.80;102007.28;4927289;29;21458;-86
2021/10/24 10:45:47;;;;;;;5.45;1.63;;;;;;;8.58;65.60;102007.38;4911115;29;20115;-87
2021/10/24 10:48:31;;;;;;;9.52;1.42;;;;;;;8.68;63.78;101998.00;4926784;29;20048;-87
2021/10/24 10:51:15;;;;;;;2.75;1.38;;;;;;;8.74;62.19;101998.13;4908044;29;20055;-87
2021/10/24 10:53:48;;;;;;;;;;;;;;;8.80;62.38;101992.16;4941999;29;20047;-87
2021/10/24 10:56:41;;;;;;;2.42;1.85;;;;;;;8.85;61.60;101990.50;4938855;28;19938;-87
2021/10/24 10:59:08;;;;;;;3.35;1.63;;;;;;;8.89;62.33;101989.72;4918339;29;20538;-88
2021/10/24 11:01:39;;;;;;;5.72;1.48;;;;;;;8.91;62.00;101990.63;4907815;29;20056;-87
2021/10/24 11:04:08;;;;;;;3.33;1.23;;;;;;;8.90;61.43;101986.25;4924645;29;20455;-87
2021/10/24 11:06:36;;;;;;;2.15;1.13;;;;;;;8.91;61.07;101982.81;4924941;29;20063;-87
2021/10/24 11:09:12;;;;;;;3.70;1.17;;;;;;;8.96;61.25;101982.88;4924100;29;20062;-87
2021/10/24 11:11:39;;;;;;;7.72;1.30;;;;;;;9.00;60.53;101977.75;4921480;29;20127;-87
2021/10/24 11:14:12;;;;;;;5.45;1.20;;;;;;;9.02;60.30;101972.53;4907775;29;20055;-86
2021/10/24 11:16:49;;;;;;;3.85;1.30;;;;;;;9.04;60.29;101969.13;4923264;29;20095;-87
2021/10/24 11:19:28;;;;;;;9.63;1.60;;;;;;;9.06;60.82;101966.53;4894095;29;20059;-87
2021/10/24 11:22:04;;;;;;;4.07;1.40;;;;;;;9.07;60.78;101968.28;4909328;29;20071;-87
2021/10/24 11:24:34;;;;;;;2.17;1.42;;;;;;;9.12;60.18;101965.78;4920116;29;20816;-86
2021/10/24 11:27:02;;;;;;;4.07;1.65;;;;;;;9.16;59.94;101962.38;4909344;29;21148;-87
2021/10/24 11:29:30;;;;;;;5.00;2.08;;;;;;;9.16;61.06;101952.78;4896236;29;20044;-86
2021/10/24 11:32:34;;;;;;;3.67;1.80;;;;;;;9.24;61.10;101942.47;4881902;29;20056;-87
2021/10/24 11:35:11;;;;;;;3.83;1.42;;;;;;;9.33;61.09;101936.53;4887571;29;20059;-87